createdAt,value
2022-11-05T00:00:33.559Z,65.10
2022-11-05T00:03:19.068Z,64.80
2022-11-05T00:06:05.259Z,64.90
2022-11-05T00:08:50.759Z,64.90
2022-11-05T00:11:18.468Z,65.00
2022-11-05T00:14:03.969Z,65.20
2022-11-05T00:16:45.917Z,65.10
2022-11-05T00:19:13.538Z,65.10
2022-11-05T00:21:59.017Z,65.40
2022-11-05T00:24:44.409Z,65.40
2022-11-05T00:27:11.451Z,65.10
2022-11-05T00:29:38.467Z,65.30
2022-11-05T00:32:05.482Z,65.30
2022-11-05T00:34:32.493Z,65.10
2022-11-05T00:36:59.409Z,65.00
2022-11-05T00:39:26.432Z,65.00
2022-11-05T00:42:11.963Z,65.10
2022-11-05T00:44:57.333Z,65.10
2022-11-05T00:47:42.764Z,65.10
2022-11-05T00:50:10.814Z,65.10
2022-11-05T00:52:56.604Z,65.20
2022-11-05T00:55:40.570Z,65.10
2022-11-05T00:58:12.469Z,64.80
2022-11-05T01:00:41.315Z,64.80
2022-11-05T01:03:11.464Z,64.80
2022-11-05T01:05:40.350Z,64.80
2022-11-05T01:08:10.461Z,64.80
2022-11-05T01:10:45.014Z,64.40
2022-11-05T01:13:13.374Z,64.60
2022-11-05T01:15:40.659Z,64.20
2022-11-05T01:18:07.662Z,64.10
2022-11-05T01:20:34.725Z,64.10
2022-11-05T01:23:07.592Z,64.10
2022-11-05T01:25:39.223Z,64.10
2022-11-05T01:28:06.939Z,64.10
2022-11-05T01:30:33.905Z,64.00
2022-11-05T01:33:02.240Z,64.00
2022-11-05T01:35:29.369Z,64.00
2022-11-05T01:37:58.188Z,63.80
2022-11-05T01:40:25.379Z,64.00
2022-11-05T01:42:52.370Z,63.90
2022-11-05T01:45:24.555Z,63.70
2022-11-05T01:48:06.985Z,63.70
2022-11-05T01:50:55.619Z,63.80
2022-11-05T01:53:38.933Z,64.10
2022-11-05T01:56:07.426Z,63.90
2022-11-05T01:58:49.207Z,64.00
2022-11-05T02:01:16.423Z,64.00
2022-11-05T02:03:43.519Z,63.90
2022-11-05T02:06:10.521Z,63.70
2022-11-05T02:08:59.244Z,63.80
2022-11-05T02:11:26.416Z,63.40
2022-11-05T02:13:53.443Z,63.50
2022-11-05T02:16:52.980Z,63.50
2022-11-05T02:19:58.342Z,63.40
2022-11-05T02:22:37.508Z,63.40
2022-11-05T02:25:35.390Z,63.70
2022-11-05T02:28:02.253Z,63.70
2022-11-05T02:30:35.135Z,63.80
2022-11-05T02:33:10.231Z,63.70
2022-11-05T02:36:09.144Z,63.50
2022-11-05T02:38:40.773Z,63.50
2022-11-05T02:41:10.625Z,63.50
2022-11-05T02:43:52.232Z,63.70
2022-11-05T02:46:31.091Z,63.70
2022-11-05T02:49:11.576Z,63.70
2022-11-05T02:51:57.294Z,63.90
2022-11-05T02:54:38.857Z,63.60
2022-11-05T02:57:05.884Z,63.50
2022-11-05T02:59:32.960Z,63.50
2022-11-05T03:02:00.175Z,63.40
2022-11-05T03:04:27.229Z,63.30
2022-11-05T03:07:03.248Z,63.50
2022-11-05T03:09:45.328Z,63.30
2022-11-05T03:12:18.380Z,63.20
2022-11-05T03:14:47.678Z,63.10
2022-11-05T03:17:43.723Z,63.60
2022-11-05T03:20:15.120Z,63.20
2022-11-05T03:22:58.464Z,63.40
2022-11-05T03:25:25.531Z,63.40
2022-11-05T03:27:56.110Z,63.30
2022-11-05T03:30:24.833Z,63.40
2022-11-05T03:32:59.312Z,63.40
2022-11-05T03:35:37.740Z,63.20
2022-11-05T03:38:08.197Z,63.60
2022-11-05T03:40:35.506Z,63.40
2022-11-05T03:43:03.905Z,63.50
2022-11-05T03:45:40.597Z,63.40
2022-11-05T03:48:08.196Z,63.40
2022-11-05T03:50:55.329Z,63.60
2022-11-05T03:53:27.039Z,63.50
2022-11-05T03:55:59.658Z,63.70
2022-11-05T03:58:26.625Z,63.90
2022-11-05T04:00:53.557Z,63.90
2022-11-05T04:03:20.575Z,64.10
2022-11-05T04:06:07.556Z,64.40
2022-11-05T04:08:53.039Z,64.30
2022-11-05T04:11:38.535Z,64.60
2022-11-05T04:14:05.572Z,64.60
2022-11-05T04:16:51.084Z,64.90
2022-11-05T04:19:38.146Z,64.80
2022-11-05T04:22:23.893Z,64.80
2022-11-05T04:24:50.876Z,65.00
2022-11-05T04:27:17.785Z,65.10
2022-11-05T04:30:03.454Z,65.30
2022-11-05T04:32:30.713Z,65.30
2022-11-05T04:34:57.721Z,65.30
2022-11-05T04:37:24.650Z,65.40
2022-11-05T04:39:51.576Z,65.40
2022-11-05T04:42:19.936Z,65.40
2022-11-05T04:44:46.949Z,65.60
2022-11-05T04:47:13.834Z,65.60
2022-11-05T04:49:40.927Z,65.60
2022-11-05T04:52:07.898Z,65.90
2022-11-05T04:54:34.870Z,66.10
2022-11-05T04:57:01.865Z,66.30
2022-11-05T04:59:28.927Z,66.40
2022-11-05T05:01:55.887Z,66.40
2022-11-05T05:04:22.950Z,66.60
2022-11-05T05:06:49.933Z,66.70
2022-11-05T05:09:16.922Z,66.90
2022-11-05T05:11:43.943Z,66.90
2022-11-05T05:14:10.985Z,67.00
2022-11-05T05:16:37.904Z,67.20
2022-11-05T05:19:05.116Z,67.40
2022-11-05T05:21:42.293Z,67.40
2022-11-05T05:24:14.032Z,67.50
2022-11-05T05:26:43.629Z,67.80
2022-11-05T05:29:10.813Z,67.70
2022-11-05T05:31:37.986Z,67.80
2022-11-05T05:34:05.438Z,68.20
2022-11-05T05:36:32.450Z,68.10
2022-11-05T05:38:59.514Z,68.20
2022-11-05T05:41:26.474Z,68.40
2022-11-05T05:43:53.469Z,68.20
2022-11-05T05:46:20.490Z,68.30
2022-11-05T05:48:51.243Z,68.50
2022-11-05T05:51:18.478Z,68.70
2022-11-05T05:53:45.513Z,68.80
2022-11-05T05:56:15.465Z,68.90
2022-11-05T05:58:42.518Z,69.20
2022-11-05T06:01:18.237Z,69.10
2022-11-05T06:03:46.692Z,69.20
2022-11-05T06:06:14.090Z,69.10
2022-11-05T06:08:41.506Z,69.30
2022-11-05T06:11:08.672Z,69.20
2022-11-05T06:13:36.173Z,69.10
2022-11-05T06:16:07.298Z,69.30
2022-11-05T06:18:34.401Z,69.20
2022-11-05T06:21:02.929Z,69.30
2022-11-05T06:23:32.104Z,69.40
2022-11-05T06:26:03.706Z,69.30
2022-11-05T06:28:30.765Z,69.40
2022-11-05T06:30:57.913Z,69.50
2022-11-05T06:33:25.156Z,69.80
2022-11-05T06:35:52.939Z,69.70
2022-11-05T06:38:19.872Z,69.50
2022-11-05T06:40:46.814Z,69.50
2022-11-05T06:43:14.298Z,69.40
2022-11-05T06:45:41.690Z,69.40
2022-11-05T06:48:08.701Z,69.30
2022-11-05T06:50:35.887Z,69.30
2022-11-05T06:53:03.796Z,69.40
2022-11-05T06:55:31.450Z,69.70
2022-11-05T06:57:59.436Z,69.80
2022-11-05T07:00:26.452Z,69.60
2022-11-05T07:02:55.800Z,69.80
2022-11-05T07:05:24.280Z,69.70
2022-11-05T07:07:51.262Z,69.90
2022-11-05T07:10:18.553Z,69.90
2022-11-05T07:12:45.715Z,69.80
2022-11-05T07:15:12.866Z,69.90
2022-11-05T07:17:40.266Z,69.80
2022-11-05T07:20:08.001Z,69.90
2022-11-05T07:22:35.460Z,70.10
2022-11-05T07:25:02.732Z,70.10
2022-11-05T07:27:29.676Z,69.70
2022-11-05T07:29:56.634Z,69.80
2022-11-05T07:32:26.718Z,69.80
2022-11-05T07:34:53.665Z,69.80
2022-11-05T07:37:20.709Z,69.50
2022-11-05T07:39:47.637Z,69.60
2022-11-05T07:42:14.637Z,69.60
2022-11-05T07:44:41.805Z,69.20
2022-11-05T07:47:11.438Z,69.10
2022-11-05T07:49:38.448Z,68.80
2022-11-05T07:52:05.552Z,68.80
2022-11-05T07:54:32.604Z,68.80
2022-11-05T07:56:59.630Z,68.70
2022-11-05T07:59:26.712Z,68.70
2022-11-05T08:01:54.893Z,68.70
2022-11-05T08:04:22.028Z,68.60
2022-11-05T08:06:49.005Z,68.50
2022-11-05T08:09:16.029Z,68.40
2022-11-05T08:11:43.096Z,69.00
2022-11-05T08:14:10.052Z,69.30
2022-11-05T08:16:36.998Z,69.50
2022-11-05T08:19:04.733Z,69.20
2022-11-05T08:21:31.928Z,68.70
2022-11-05T08:23:59.522Z,68.90
2022-11-05T08:26:26.903Z,68.70
2022-11-05T08:28:54.042Z,68.70
2022-11-05T08:31:21.018Z,68.90
2022-11-05T08:33:48.020Z,68.80
2022-11-05T08:36:17.942Z,68.90
2022-11-05T08:38:45.151Z,68.80
2022-11-05T08:41:12.172Z,68.70
2022-11-05T08:43:42.215Z,68.80
2022-11-05T08:46:09.320Z,68.90
2022-11-05T08:48:36.337Z,69.00
2022-11-05T08:51:03.324Z,69.20
2022-11-05T08:53:30.386Z,69.30
2022-11-05T08:56:00.644Z,69.20
2022-11-05T08:58:27.885Z,69.10
2022-11-05T09:00:59.034Z,69.20
2022-11-05T09:03:29.131Z,69.30
2022-11-05T09:05:56.352Z,69.20
2022-11-05T09:08:23.480Z,69.10
2022-11-05T09:10:50.649Z,69.30
2022-11-05T09:13:19.904Z,69.20
2022-11-05T09:15:50.893Z,69.30
2022-11-05T09:18:18.245Z,69.30
2022-11-05T09:20:45.319Z,69.20
2022-11-05T09:23:15.028Z,69.10
2022-11-05T09:25:42.856Z,69.10
2022-11-05T09:28:20.960Z,69.20
2022-11-05T09:30:49.623Z,69.10
2022-11-05T09:33:19.970Z,69.00
2022-11-05T09:35:47.690Z,69.20
2022-11-05T09:38:14.854Z,69.20
2022-11-05T09:40:56.524Z,69.20
2022-11-05T09:43:31.507Z,69.20
2022-11-05T09:46:00.470Z,69.10
2022-11-05T09:48:29.054Z,69.00
2022-11-05T09:50:56.456Z,69.10
2022-11-05T09:53:23.656Z,69.10
2022-11-05T09:55:55.578Z,69.20
2022-11-05T09:58:43.702Z,68.90
2022-11-05T10:01:17.573Z,69.00
2022-11-05T10:03:46.639Z,69.40
2022-11-05T10:06:18.545Z,69.30
2022-11-05T10:08:46.894Z,69.40
2022-11-05T10:11:23.798Z,69.30
2022-11-05T10:13:57.884Z,69.80
2022-11-05T10:16:35.463Z,69.70
2022-11-05T10:19:06.944Z,69.80
2022-11-05T10:22:04.461Z,69.80
2022-11-05T10:24:21.464Z,69.70
2022-11-05T10:26:50.776Z,69.80
2022-11-05T10:29:29.435Z,69.80
2022-11-05T10:31:57.680Z,69.90
2022-11-05T10:34:27.771Z,69.90
2022-11-05T10:36:54.891Z,70.10
2022-11-05T10:39:22.332Z,70.20
2022-11-05T10:42:20.193Z,70.20
2022-11-05T10:45:07.930Z,70.30
2022-11-05T10:47:56.767Z,70.60
2022-11-05T10:50:25.512Z,70.50
2022-11-05T10:52:56.144Z,70.60
2022-11-05T10:55:28.429Z,70.60
2022-11-05T10:57:57.124Z,70.60
2022-11-05T11:00:25.450Z,70.60
2022-11-05T11:02:58.097Z,70.60
2022-11-05T11:05:33.459Z,70.70
2022-11-05T11:08:12.325Z,70.70
2022-11-05T11:10:50.340Z,70.70
2022-11-05T11:13:26.528Z,70.80
2022-11-05T11:15:53.636Z,70.90
2022-11-05T11:18:32.418Z,70.90
2022-11-05T11:21:19.646Z,71.10
2022-11-05T11:23:55.900Z,71.00
2022-11-05T11:26:27.436Z,71.40
2022-11-05T11:28:57.217Z,71.20
2022-11-05T11:31:25.529Z,71.20
2022-11-05T11:34:00.320Z,71.20
2022-11-05T11:36:44.603Z,71.30
2022-11-05T11:39:18.731Z,71.30
2022-11-05T11:41:45.906Z,71.20
2022-11-05T11:44:18.509Z,70.60
2022-11-05T11:46:52.466Z,71.50
2022-11-05T11:49:41.370Z,71.60
2022-11-05T11:52:15.405Z,71.40
2022-11-05T11:54:42.618Z,71.90
2022-11-05T11:57:28.455Z,71.80
2022-11-05T12:00:11.544Z,71.80
2022-11-05T12:03:02.075Z,71.70
2022-11-05T12:05:43.755Z,71.80
2022-11-05T12:08:36.266Z,72.20
2022-11-05T12:11:16.168Z,72.00
2022-11-05T12:14:10.206Z,72.10
2022-11-05T12:16:53.044Z,72.10
2022-11-05T12:19:43.195Z,72.00
2022-11-05T12:22:33.057Z,72.00
2022-11-05T12:25:09.328Z,72.40
2022-11-05T12:27:52.648Z,72.50
2022-11-05T12:30:21.067Z,72.40
2022-11-05T12:33:10.283Z,72.30
2022-11-05T12:35:47.552Z,72.20
2022-11-05T12:38:53.161Z,72.20
2022-11-05T12:41:42.154Z,72.10
2022-11-05T12:44:14.579Z,72.10
2022-11-05T12:46:48.479Z,72.10
2022-11-05T12:49:44.295Z,72.20
2022-11-05T12:52:42.855Z,72.00
2022-11-05T12:55:13.726Z,72.10
2022-11-05T12:57:44.360Z,72.10
2022-11-05T13:00:22.210Z,72.00
2022-11-05T13:02:55.010Z,72.10
2022-11-05T13:05:23.112Z,72.00
2022-11-05T13:08:05.175Z,72.00
2022-11-05T13:10:42.710Z,71.80
2022-11-05T13:13:34.232Z,71.80
2022-11-05T13:16:24.628Z,71.90
2022-11-05T13:19:00.574Z,72.00
2022-11-05T13:21:29.138Z,72.00
2022-11-05T13:24:15.306Z,71.90
2022-11-05T13:26:42.268Z,71.90
2022-11-05T13:29:26.794Z,71.80
2022-11-05T13:31:57.933Z,71.80
2022-11-05T13:34:24.960Z,71.80
2022-11-05T13:37:13.738Z,71.90
2022-11-05T13:39:58.631Z,72.00
2022-11-05T13:42:53.424Z,72.00
2022-11-05T13:45:29.603Z,71.80
2022-11-05T13:48:15.062Z,71.80
2022-11-05T13:51:03.380Z,71.70
2022-11-05T13:53:41.114Z,71.60
2022-11-05T13:56:36.517Z,71.70
2022-11-05T13:59:34.362Z,71.50
2022-11-05T14:02:03.723Z,71.60
2022-11-05T14:04:35.124Z,71.60
2022-11-05T14:07:12.881Z,71.80
2022-11-05T14:09:40.094Z,71.60
2022-11-05T14:12:14.191Z,71.50
2022-11-05T14:14:46.172Z,71.40
2022-11-05T14:17:15.803Z,71.30
2022-11-05T14:20:08.562Z,71.20
2022-11-05T14:22:37.984Z,71.00
2022-11-05T14:25:19.861Z,71.30
2022-11-05T14:27:48.705Z,71.30
2022-11-05T14:30:45.861Z,71.20
2022-11-05T14:33:26.593Z,71.00
2022-11-05T14:36:23.747Z,71.30
2022-11-05T14:38:57.753Z,71.00
2022-11-05T14:41:27.102Z,71.10
2022-11-05T14:44:01.486Z,71.00
2022-11-05T14:46:45.982Z,71.00
2022-11-05T14:49:17.690Z,70.80
2022-11-05T14:51:45.827Z,70.80
2022-11-05T14:54:27.838Z,70.70
2022-11-05T14:56:59.449Z,70.80
2022-11-05T14:59:29.138Z,70.70
2022-11-05T15:01:57.160Z,70.80
2022-11-05T15:04:27.461Z,70.40
2022-11-05T15:07:13.734Z,70.30
2022-11-05T15:09:47.671Z,70.20
2022-11-05T15:12:41.228Z,70.10
2022-11-05T15:15:23.570Z,70.00
2022-11-05T15:18:05.894Z,70.10
2022-11-05T15:20:39.784Z,70.10
2022-11-05T15:23:09.530Z,70.20
2022-11-05T15:25:52.771Z,70.20
2022-11-05T15:28:29.324Z,70.20
2022-11-05T15:31:16.824Z,70.40
2022-11-05T15:33:47.869Z,70.40
2022-11-05T15:36:22.863Z,70.20
2022-11-05T15:39:42.478Z,70.10
2022-11-05T15:42:23.608Z,70.10
2022-11-05T15:45:24.018Z,70.50
2022-11-05T15:47:51.132Z,69.70
2022-11-05T15:50:21.418Z,69.60
2022-11-05T15:55:54.825Z,70.00
2022-11-05T15:58:21.817Z,70.30
2022-11-05T16:00:49.015Z,70.60
2022-11-05T16:03:30.886Z,70.90
2022-11-05T16:05:57.953Z,71.00
2022-11-05T16:11:09.678Z,72.00
2022-11-05T16:13:50.404Z,72.00
2022-11-05T16:16:19.236Z,72.50
2022-11-05T16:18:46.208Z,72.80
2022-11-05T16:21:25.725Z,72.60
2022-11-05T16:24:01.387Z,72.80
2022-11-05T16:27:02.346Z,72.60
2022-11-05T16:29:46.459Z,72.70
2022-11-05T16:32:17.749Z,72.50
2022-11-05T16:38:02.502Z,72.50
2022-11-05T16:40:30.721Z,72.40
2022-11-05T16:43:17.362Z,72.30
2022-11-05T16:45:44.446Z,72.20
2022-11-05T16:48:12.403Z,72.10
2022-11-05T16:50:39.861Z,71.80
2022-11-05T16:53:06.933Z,71.70
2022-11-05T16:55:34.727Z,71.70
2022-11-05T16:58:01.815Z,71.60
2022-11-05T17:00:28.804Z,71.40
2022-11-05T17:02:55.893Z,71.30
2022-11-05T17:05:30.527Z,71.30
2022-11-05T17:07:57.774Z,71.30
2022-11-05T17:10:25.326Z,71.30
2022-11-05T17:12:52.564Z,71.30
2022-11-05T17:15:21.888Z,71.10
2022-11-05T17:17:49.650Z,70.80
2022-11-05T17:20:40.739Z,70.80
2022-11-05T17:23:12.986Z,70.80
2022-11-05T17:25:42.101Z,70.80
2022-11-05T17:28:09.413Z,70.80
2022-11-05T17:30:36.955Z,70.70
2022-11-05T17:33:04.415Z,70.60
2022-11-05T17:35:31.481Z,70.70
2022-11-05T17:37:58.642Z,70.60
2022-11-05T17:40:28.382Z,70.60
2022-11-05T17:42:55.404Z,70.50
2022-11-05T17:45:22.362Z,70.50
2022-11-05T17:47:49.325Z,70.60
2022-11-05T17:50:16.508Z,70.50
2022-11-05T17:52:43.727Z,70.60
2022-11-05T17:55:17.504Z,70.70
2022-11-05T17:57:45.910Z,70.50
2022-11-05T18:00:13.906Z,70.40
2022-11-05T18:02:40.928Z,70.50
2022-11-05T18:05:11.068Z,70.50
2022-11-05T18:07:38.121Z,70.30
2022-11-05T18:10:06.629Z,70.30
2022-11-05T18:12:34.013Z,70.20
2022-11-05T18:15:03.629Z,70.30
2022-11-05T18:17:30.719Z,70.10
2022-11-05T18:19:57.756Z,70.10
2022-11-05T18:22:26.600Z,70.10
2022-11-05T18:24:54.720Z,70.10
2022-11-05T18:27:24.589Z,70.10
2022-11-05T18:29:51.752Z,70.10
2022-11-05T18:32:18.789Z,70.00
2022-11-05T18:34:45.814Z,70.00
2022-11-05T18:37:12.802Z,69.90
2022-11-05T18:39:39.937Z,69.90
2022-11-05T18:42:06.943Z,70.00
2022-11-05T18:44:39.010Z,70.00
2022-11-05T18:47:06.971Z,70.00
2022-11-05T18:49:34.042Z,70.00
2022-11-05T18:52:01.065Z,70.20
2022-11-05T18:54:30.834Z,70.00
2022-11-05T18:56:57.843Z,69.80
2022-11-05T18:59:42.463Z,69.80
2022-11-05T19:02:11.251Z,69.90
2022-11-05T19:04:39.567Z,69.90
2022-11-05T19:07:07.041Z,69.90
2022-11-05T19:09:34.579Z,69.80
2022-11-05T19:12:02.154Z,69.90
2022-11-05T19:14:31.818Z,69.80
2022-11-05T19:16:59.071Z,69.90
2022-11-05T19:19:26.138Z,69.90
2022-11-05T19:21:53.191Z,69.80
2022-11-05T19:24:20.277Z,69.80
2022-11-05T19:26:48.071Z,69.80
2022-11-05T19:29:15.229Z,70.00
2022-11-05T19:31:42.342Z,69.90
2022-11-05T19:34:09.388Z,69.80
2022-11-05T19:36:36.382Z,69.80
2022-11-05T19:39:06.371Z,69.60
2022-11-05T19:41:34.606Z,69.70
2022-11-05T19:44:02.653Z,69.90
2022-11-05T19:46:29.941Z,69.80
2022-11-05T19:48:56.962Z,69.80
2022-11-05T19:51:27.661Z,69.80
2022-11-05T19:53:56.339Z,69.90
2022-11-05T19:56:28.507Z,70.00
2022-11-05T19:58:55.823Z,69.90
2022-11-05T20:01:23.603Z,70.00
2022-11-05T20:03:50.978Z,69.90
2022-11-05T20:06:22.727Z,69.90
2022-11-05T20:11:40.060Z,69.80
2022-11-05T20:14:07.812Z,69.80
2022-11-05T20:16:38.195Z,69.80
2022-11-05T20:19:06.622Z,70.00
2022-11-05T20:21:34.529Z,70.20
2022-11-05T20:24:01.565Z,70.30
2022-11-05T20:26:28.671Z,70.40
2022-11-05T20:28:56.060Z,70.60
2022-11-05T20:31:23.151Z,70.60
2022-11-05T20:33:50.177Z,70.50
2022-11-05T20:36:18.822Z,70.50
2022-11-05T20:38:49.789Z,70.60
2022-11-05T20:41:16.867Z,70.70
2022-11-05T20:43:44.120Z,70.70
2022-11-05T20:46:15.328Z,70.80
2022-11-05T20:48:42.874Z,70.80
2022-11-05T20:51:11.417Z,70.70
2022-11-05T20:53:38.488Z,70.70
2022-11-05T20:56:08.574Z,70.80
2022-11-05T20:58:36.702Z,70.80
2022-11-05T21:01:04.277Z,70.70
2022-11-05T21:03:31.462Z,70.80
2022-11-05T21:06:00.017Z,70.90
2022-11-05T21:08:27.566Z,70.90
2022-11-05T21:10:55.053Z,71.10
2022-11-05T21:13:24.576Z,71.00
2022-11-05T21:15:53.380Z,71.00
2022-11-05T21:18:22.868Z,71.00
2022-11-05T21:20:51.380Z,70.90
2022-11-05T21:23:18.334Z,70.80
2022-11-05T21:25:45.343Z,70.70
2022-11-05T21:28:12.965Z,70.80
2022-11-05T21:30:45.469Z,70.60
2022-11-05T21:33:14.603Z,70.50
2022-11-05T21:35:44.080Z,70.50
2022-11-05T21:38:12.021Z,70.70
2022-11-05T21:40:41.186Z,70.80
2022-11-05T21:43:09.073Z,70.70
2022-11-05T21:45:38.840Z,70.60
2022-11-05T21:48:06.621Z,70.50
2022-11-05T21:50:52.109Z,70.50
2022-11-05T21:53:43.465Z,70.40
2022-11-05T21:56:42.909Z,70.50
2022-11-05T21:59:46.661Z,70.40
2022-11-05T22:02:24.846Z,70.30
2022-11-05T22:04:54.392Z,70.50
2022-11-05T22:07:23.069Z,70.70
2022-11-05T22:09:53.104Z,70.50
2022-11-05T22:12:21.256Z,70.30
2022-11-05T22:14:51.589Z,70.30
2022-11-05T22:17:18.998Z,70.30
2022-11-05T22:19:54.954Z,70.30
2022-11-05T22:22:25.041Z,70.30
2022-11-05T22:24:52.118Z,70.30
2022-11-05T22:27:22.389Z,70.40
2022-11-05T22:29:49.686Z,70.10
2022-11-05T22:32:19.638Z,70.10
2022-11-05T22:34:48.310Z,70.10
2022-11-05T22:37:15.506Z,70.10
2022-11-05T22:39:42.502Z,70.10
2022-11-05T22:42:10.094Z,69.90
2022-11-05T22:44:37.300Z,69.90
2022-11-05T22:47:07.803Z,69.90
2022-11-05T22:49:34.859Z,70.00
2022-11-05T22:52:05.166Z,69.90
2022-11-05T22:54:37.922Z,69.90
2022-11-05T22:57:08.453Z,69.80
2022-11-05T22:59:37.455Z,69.90
2022-11-05T23:02:09.401Z,69.80
2022-11-05T23:04:39.100Z,69.80
2022-11-05T23:07:27.616Z,69.80
2022-11-05T23:10:14.905Z,69.90
2022-11-05T23:12:46.633Z,69.90
2022-11-05T23:15:34.176Z,69.80
2022-11-05T23:18:20.182Z,70.00
2022-11-05T23:21:07.606Z,70.00
2022-11-05T23:23:56.369Z,69.90
2022-11-05T23:26:42.083Z,69.90
2022-11-05T23:29:09.077Z,70.00
2022-11-05T23:31:56.544Z,69.90
2022-11-05T23:34:26.067Z,69.90
2022-11-05T23:37:26.802Z,69.90
2022-11-05T23:39:53.905Z,69.90
2022-11-05T23:42:39.774Z,69.80
2022-11-05T23:45:27.354Z,69.80
2022-11-05T23:48:13.156Z,69.80
2022-11-05T23:50:43.211Z,69.80
2022-11-05T23:53:12.435Z,69.70
2022-11-05T23:55:42.454Z,69.90
2022-11-05T23:58:09.687Z,69.90
